Time;durP1;ratioP1;P1;durP2;ratioP2;P2;SDS_P1;SDS_P2;PMS_P1;PMS_P2;Temp;Humidity;BMP_temperature;BMP_pressure;BME280_temperature;BME280_humidity;BME280_pressure;Samples;Min_cycle;Max_cycle;Signal;HPM_P1;HPM_P2
2023/07/04 00:01:00;;;;;;;6.38;1.25;;;16.50;99.30;;;;;;5095947;28;20057;-78
2023/07/04 00:03:29;;;;;;;4.20;1.20;;;16.50;99.40;;;;;;5096129;28;20028;-80
2023/07/04 00:05:55;;;;;;;5.47;0.73;;;16.50;99.40;;;;;;5097184;28;20118;-79
2023/07/04 00:08:22;;;;;;;5.90;0.93;;;16.40;99.50;;;;;;5096608;28;20029;-79
2023/07/04 00:10:50;;;;;;;6.88;0.98;;;16.50;99.80;;;;;;5097410;28;20020;-79
2023/07/04 00:13:17;;;;;;;6.63;1.00;;;16.50;99.50;;;;;;5096795;28;20032;-79
2023/07/04 00:15:48;;;;;;;5.90;0.68;;;16.50;99.50;;;;;;5097042;28;20467;-80
2023/07/04 00:18:14;;;;;;;5.65;0.88;;;16.50;99.60;;;;;;5095668;28;20585;-79
2023/07/04 00:20:40;;;;;;;5.03;0.77;;;16.40;99.50;;;;;;5096038;28;20139;-78
2023/07/04 00:23:06;;;;;;;7.35;1.50;;;16.40;99.60;;;;;;5097074;28;20028;-78
2023/07/04 00:25:34;;;;;;;3.42;0.60;;;16.40;99.70;;;;;;5096677;28;20055;-78
2023/07/04 00:28:05;;;;;;;7.07;1.00;;;16.40;99.80;;;;;;5096705;28;20028;-79
2023/07/04 00:30:31;;;;;;;5.80;0.80;;;16.40;99.90;;;;;;5079845;28;20024;-78
2023/07/04 00:32:57;;;;;;;9.55;1.70;;;16.40;99.90;;;;;;5096482;28;20040;-78
2023/07/04 00:35:22;;;;;;;4.80;0.90;;;16.40;99.90;;;;;;5078464;28;20039;-78
2023/07/04 00:37:48;;;;;;;4.82;0.73;;;16.40;99.90;;;;;;5096650;28;20408;-79
2023/07/04 00:40:15;;;;;;;7.20;0.77;;;16.50;99.80;;;;;;5096502;28;20024;-80
2023/07/04 00:42:41;;;;;;;5.57;0.77;;;16.50;99.70;;;;;;5095104;28;20028;-78
2023/07/04 00:45:19;;;;;;;5.35;0.70;;;16.50;99.50;;;;;;5079008;28;20024;-79
2023/07/04 00:47:53;;;;;;;7.40;1.30;;;16.50;99.50;;;;;;5095377;28;20077;-80
2023/07/04 00:50:33;;;;;;;5.32;0.80;;;16.50;99.50;;;;;;5095883;28;20461;-79
2023/07/04 00:53:02;;;;;;;6.28;0.93;;;16.40;99.20;;;;;;5096733;28;20097;-80
2023/07/04 00:55:30;;;;;;;8.52;0.90;;;16.40;99.20;;;;;;5096208;28;20050;-81
2023/07/04 00:57:56;;;;;;;3.50;0.75;;;16.30;99.20;;;;;;5079071;28;20115;-81
2023/07/04 01:00:23;;;;;;;4.47;0.90;;;16.30;99.30;;;;;;5093395;28;20519;-79
2023/07/04 01:03:01;;;;;;;3.75;0.60;;;16.30;99.40;;;;;;5095928;28;20456;-79
2023/07/04 01:05:36;;;;;;;3.38;0.60;;;16.30;99.40;;;;;;5096388;28;20032;-80
2023/07/04 01:08:12;;;;;;;6.90;0.82;;;16.30;99.40;;;;;;5096361;28;20028;-79
2023/07/04 01:10:44;;;;;;;7.65;1.45;;;16.30;99.10;;;;;;5094975;28;20070;-77
2023/07/04 01:13:28;;;;;;;5.15;1.08;;;16.40;99.30;;;;;;5094627;28;20042;-78
2023/07/04 01:15:54;;;;;;;7.38;1.33;;;16.40;99.30;;;;;;5094127;28;20032;-78
2023/07/04 01:18:23;;;;;;;7.47;1.85;;;16.30;99.50;;;;;;5094298;28;20078;-78
2023/07/04 01:20:50;;;;;;;11.10;1.40;;;16.20;99.80;;;;;;5095445;28;20110;-78
2023/07/04 01:23:42;;;;;;;14.45;1.83;;;16.20;99.90;;;;;;5094586;28;20127;-78
2023/07/04 01:26:26;;;;;;;6.05;1.20;;;16.10;99.90;;;;;;5054137;28;20460;-79
2023/07/04 01:28:53;;;;;;;7.00;1.33;;;16.00;99.90;;;;;;5093973;28;20032;-79
2023/07/04 01:31:25;;;;;;;5.90;1.40;;;16.00;99.90;;;;;;5095266;28;20031;-79
2023/07/04 01:33:51;;;;;;;6.15;1.02;;;15.90;99.90;;;;;;5094514;28;20492;-79
2023/07/04 01:36:20;;;;;;;8.50;1.20;;;16.00;99.90;;;;;;5094161;28;20469;-79
2023/07/04 01:38:46;;;;;;;8.40;1.67;;;16.00;99.90;;;;;;5094363;28;20481;-80
2023/07/04 01:41:12;;;;;;;8.52;1.10;;;16.10;99.90;;;;;;5095363;28;20105;-80
2023/07/04 01:43:38;;;;;;;8.90;1.42;;;16.20;99.90;;;;;;5095274;28;20123;-79
2023/07/04 01:46:04;;;;;;;7.20;1.30;;;16.20;99.90;;;;;;5094952;28;20061;-79
2023/07/04 01:48:31;;;;;;;6.20;1.38;;;16.20;99.90;;;;;;5094276;28;20035;-79
2023/07/04 01:50:56;;;;;;;6.68;1.27;;;16.30;99.90;;;;;;5077633;28;20396;-80
2023/07/04 01:53:22;;;;;;;8.52;1.38;;;16.30;99.90;;;;;;5095233;28;20182;-80
2023/07/04 01:55:48;;;;;;;6.78;1.55;;;16.40;99.90;;;;;;5095345;28;20081;-80
2023/07/04 01:58:13;;;;;;;4.90;1.20;;;16.30;99.90;;;;;;5095036;28;20414;-80
2023/07/04 02:00:39;;;;;;;7.97;1.73;;;16.40;99.90;;;;;;5094951;28;20028;-80
2023/07/04 02:03:05;;;;;;;8.73;1.45;;;16.30;99.90;;;;;;5094533;28;20459;-80
2023/07/04 02:05:31;;;;;;;10.80;2.22;;;16.40;99.90;;;;;;5094802;28;20032;-80
2023/07/04 02:07:58;;;;;;;4.35;0.90;;;16.50;99.90;;;;;;5093495;28;20115;-79
2023/07/04 02:10:24;;;;;;;11.25;1.42;;;16.50;99.90;;;;;;5077145;28;20032;-79
2023/07/04 02:12:50;;;;;;;7.05;1.35;;;16.60;99.90;;;;;;5094422;28;20043;-78
2023/07/04 02:15:16;;;;;;;7.97;1.17;;;16.70;99.90;;;;;;5094642;28;20058;-78
2023/07/04 02:17:42;;;;;;;10.02;2.55;;;16.70;99.90;;;;;;5094708;28;20049;-78
2023/07/04 02:20:08;;;;;;;9.02;1.73;;;16.80;99.90;;;;;;5093320;28;20536;-79
2023/07/04 02:22:34;;;;;;;4.82;1.10;;;16.80;99.90;;;;;;5093051;28;20380;-79
2023/07/04 02:25:02;;;;;;;7.97;1.95;;;16.80;99.90;;;;;;5093233;28;20036;-79
2023/07/04 02:27:28;;;;;;;6.65;1.30;;;16.90;99.90;;;;;;5094465;28;20028;-79
2023/07/04 02:29:54;;;;;;;5.63;1.20;;;16.90;99.90;;;;;;5093375;28;20483;-79
2023/07/04 02:32:20;;;;;;;8.00;1.30;;;16.90;99.90;;;;;;5093475;28;20032;-80
2023/07/04 02:34:46;;;;;;;8.98;1.45;;;16.90;99.90;;;;;;5094606;28;20034;-80
2023/07/04 02:37:11;;;;;;;4.80;1.17;;;16.90;99.80;;;;;;5094016;28;20027;-80
2023/07/04 02:39:37;;;;;;;7.20;1.30;;;16.90;99.60;;;;;;5076098;28;20032;-80
2023/07/04 02:42:04;;;;;;;11.68;1.60;;;16.80;99.50;;;;;;5093932;28;20107;-79
2023/07/04 02:44:30;;;;;;;6.00;1.60;;;16.80;99.60;;;;;;5092538;28;20052;-79
2023/07/04 02:46:56;;;;;;;8.23;1.73;;;16.80;99.60;;;;;;5094176;28;20043;-79
2023/07/04 02:49:21;;;;;;;7.05;1.25;;;16.80;99.50;;;;;;5092751;28;20028;-79
2023/07/04 02:51:47;;;;;;;7.57;1.77;;;16.80;99.40;;;;;;5094087;28;20020;-80
2023/07/04 02:54:15;;;;;;;6.95;1.27;;;16.80;99.40;;;;;;5075884;28;20036;-80
2023/07/04 02:56:41;;;;;;;7.60;1.50;;;16.80;99.30;;;;;;5077121;28;20361;-80
2023/07/04 02:59:07;;;;;;;5.00;0.90;;;16.90;99.30;;;;;;5093968;28;20487;-79
2023/07/04 03:01:33;;;;;;;7.25;1.50;;;16.80;99.20;;;;;;5092675;28;20032;-79
2023/07/04 03:03:59;;;;;;;6.15;1.45;;;16.80;99.20;;;;;;5093597;28;20170;-80
2023/07/04 03:06:24;;;;;;;5.30;1.02;;;16.80;99.20;;;;;;5093651;28;20028;-80
2023/07/04 03:08:51;;;;;;;5.78;1.13;;;16.80;99.10;;;;;;5093578;28;20107;-79
2023/07/04 03:11:17;;;;;;;3.65;0.60;;;16.90;99.20;;;;;;5092613;28;20034;-79
2023/07/04 03:13:43;;;;;;;5.55;1.10;;;16.90;99.50;;;;;;5093487;28;20114;-79
2023/07/04 03:16:09;;;;;;;9.77;1.55;;;17.00;99.20;;;;;;5092397;28;20028;-79
2023/07/04 03:18:34;;;;;;;5.18;1.50;;;16.90;98.90;;;;;;5093725;28;20079;-79
2023/07/04 03:21:00;;;;;;;6.00;1.23;;;16.90;99.00;;;;;;5093467;28;20077;-79
2023/07/04 03:23:26;;;;;;;8.48;1.50;;;16.90;98.90;;;;;;5077537;28;20032;-78
2023/07/04 03:25:51;;;;;;;5.75;1.45;;;16.80;98.90;;;;;;5096739;28;20058;-80
2023/07/04 03:28:17;;;;;;;5.38;0.70;;;16.80;99.00;;;;;;5080231;28;20371;-79
2023/07/04 03:30:42;;;;;;;4.93;0.90;;;16.80;99.00;;;;;;5096549;28;20032;-79
2023/07/04 03:33:08;;;;;;;3.50;0.73;;;16.90;99.10;;;;;;5097099;28;20077;-80
2023/07/04 03:35:38;;;;;;;3.70;0.60;;;16.90;99.10;;;;;;5097892;28;20445;-79
2023/07/04 03:38:03;;;;;;;3.08;0.68;;;17.00;99.00;;;;;;5097695;28;20138;-79
2023/07/04 03:40:29;;;;;;;6.47;0.77;;;17.00;98.80;;;;;;5080393;28;20059;-80
2023/07/04 03:42:55;;;;;;;3.97;0.80;;;17.10;98.70;;;;;;5097057;28;20032;-79
2023/07/04 03:45:20;;;;;;;5.57;1.00;;;17.10;98.70;;;;;;5097006;28;20464;-80
2023/07/04 03:47:46;;;;;;;2.72;0.60;;;17.20;98.50;;;;;;5080144;28;20322;-79
2023/07/04 03:50:14;;;;;;;4.18;0.77;;;17.20;98.40;;;;;;5096840;28;20036;-80
2023/07/04 03:52:40;;;;;;;4.45;0.75;;;17.30;98.30;;;;;;5097746;28;20509;-79
2023/07/04 03:55:07;;;;;;;2.92;0.75;;;17.30;98.20;;;;;;5096142;28;20019;-79
2023/07/04 03:57:33;;;;;;;6.00;1.27;;;17.40;98.00;;;;;;5097042;28;20038;-79
2023/07/04 03:59:58;;;;;;;5.88;1.17;;;17.40;98.00;;;;;;5097273;28;20111;-80
2023/07/04 04:02:24;;;;;;;5.28;0.88;;;17.30;97.60;;;;;;5096064;28;20111;-80
2023/07/04 04:04:50;;;;;;;5.47;0.90;;;17.30;97.50;;;;;;5095997;28;20028;-79
2023/07/04 04:07:16;;;;;;;5.20;0.80;;;17.20;97.40;;;;;;5079306;28;20036;-80
2023/07/04 04:09:42;;;;;;;7.55;0.70;;;17.20;97.50;;;;;;5097343;28;20372;-79
2023/07/04 04:12:09;;;;;;;4.55;1.00;;;17.20;97.60;;;;;;5097074;28;20103;-79
2023/07/04 04:14:36;;;;;;;7.95;0.88;;;17.10;97.50;;;;;;5097297;28;20032;-79
2023/07/04 04:17:03;;;;;;;4.97;1.00;;;17.10;97.60;;;;;;5095848;28;20426;-78
2023/07/04 04:19:29;;;;;;;7.78;1.40;;;17.00;97.60;;;;;;5096905;28;20456;-80
2023/07/04 04:21:55;;;;;;;8.05;2.05;;;17.10;97.70;;;;;;5096900;28;20039;-80
2023/07/04 04:24:21;;;;;;;6.20;1.00;;;17.10;97.70;;;;;;5095454;28;20032;-79
2023/07/04 04:26:47;;;;;;;4.75;1.00;;;17.10;97.80;;;;;;5096454;28;20039;-79
2023/07/04 04:29:17;;;;;;;5.53;1.23;;;17.10;97.80;;;;;;5078644;28;20028;-79
2023/07/04 04:31:45;;;;;;;6.47;1.15;;;17.10;97.80;;;;;;5096736;28;20032;-79
2023/07/04 04:34:11;;;;;;;4.53;0.82;;;17.10;97.90;;;;;;5096645;28;20107;-80
2023/07/04 04:36:37;;;;;;;7.18;1.35;;;17.10;97.80;;;;;;5097100;28;20024;-79
2023/07/04 04:39:04;;;;;;;3.70;0.93;;;17.20;97.90;;;;;;5096859;28;20040;-79
2023/07/04 04:41:30;;;;;;;5.20;1.08;;;17.20;97.90;;;;;;5095093;28;20028;-80
2023/07/04 04:44:01;;;;;;;7.28;0.80;;;17.20;97.90;;;;;;5095170;28;20481;-80
2023/07/04 04:46:28;;;;;;;4.78;1.00;;;17.30;97.90;;;;;;5096619;28;20052;-79
2023/07/04 04:48:53;;;;;;;5.00;0.82;;;17.40;97.80;;;;;;5078441;28;20040;-80
2023/07/04 04:51:22;;;;;;;5.38;0.95;;;17.40;97.70;;;;;;5095199;28;20074;-80
2023/07/04 04:53:48;;;;;;;4.25;1.00;;;17.50;97.70;;;;;;5095194;28;20031;-79
2023/07/04 04:56:14;;;;;;;4.82;0.98;;;17.50;97.70;;;;;;5095497;28;20119;-80
2023/07/04 04:58:43;;;;;;;6.30;1.58;;;17.60;97.60;;;;;;5095869;28;20103;-79
2023/07/04 05:01:21;;;;;;;9.85;1.98;;;17.60;97.60;;;;;;5096109;28;20035;-79
2023/07/04 05:03:53;;;;;;;6.63;1.20;;;17.60;97.70;;;;;;5095398;28;20032;-80
2023/07/04 05:06:20;;;;;;;4.38;1.20;;;17.60;97.60;;;;;;5096119;28;20552;-80
2023/07/04 05:08:46;;;;;;;8.32;1.65;;;17.60;97.60;;;;;;5095203;28;20472;-79
2023/07/04 05:11:13;;;;;;;10.65;2.10;;;17.60;97.70;;;;;;5077825;28;20032;-79
2023/07/04 05:13:40;;;;;;;5.82;1.23;;;17.50;97.70;;;;;;5094676;28;20473;-79
2023/07/04 05:16:08;;;;;;;8.43;1.90;;;17.50;97.70;;;;;;5078170;28;20066;-80
2023/07/04 05:18:35;;;;;;;9.55;1.70;;;17.50;97.90;;;;;;5094417;28;20032;-80
2023/07/04 05:21:06;;;;;;;8.90;1.75;;;17.50;98.00;;;;;;5094155;28;20085;-80
2023/07/04 05:23:39;;;;;;;8.43;1.50;;;17.50;98.20;;;;;;5095595;28;20032;-79
2023/07/04 05:26:07;;;;;;;6.80;1.55;;;17.50;98.20;;;;;;5096076;28;20021;-80
2023/07/04 05:28:33;;;;;;;6.78;1.83;;;17.50;98.10;;;;;;5094682;28;20028;-79
2023/07/04 05:31:01;;;;;;;7.88;1.60;;;17.60;98.20;;;;;;5095436;28;20380;-79
2023/07/04 05:33:27;;;;;;;7.07;1.55;;;17.60;98.30;;;;;;5094946;28;20113;-78
2023/07/04 05:36:07;;;;;;;7.40;1.75;;;17.60;98.30;;;;;;5094104;28;20032;-78
2023/07/04 05:38:34;;;;;;;7.88;1.60;;;17.70;98.20;;;;;;5095624;28;20031;-79
2023/07/04 05:41:00;;;;;;;8.07;1.80;;;17.70;98.50;;;;;;5061186;28;20028;-78
2023/07/04 05:43:26;;;;;;;6.60;1.58;;;17.80;98.50;;;;;;5095184;28;20044;-78
2023/07/04 05:45:53;;;;;;;9.77;2.15;;;17.80;98.50;;;;;;5094605;28;20051;-78
2023/07/04 05:48:19;;;;;;;10.95;2.60;;;17.80;98.60;;;;;;5093673;28;20028;-77
2023/07/04 05:50:51;;;;;;;9.60;2.40;;;17.80;98.60;;;;;;5093715;28;20032;-78
2023/07/04 05:53:17;;;;;;;12.45;2.75;;;17.70;98.50;;;;;;5095204;28;20085;-78
2023/07/04 05:55:43;;;;;;;14.43;3.17;;;17.70;98.50;;;;;;5076763;28;20127;-78
2023/07/04 05:58:08;;;;;;;10.25;2.47;;;17.80;98.50;;;;;;5094954;28;20059;-79
2023/07/04 06:00:35;;;;;;;17.15;2.65;;;17.80;98.50;;;;;;5092801;28;20060;-78
2023/07/04 06:03:03;;;;;;;10.63;2.42;;;17.80;98.60;;;;;;5094774;28;20058;-79
2023/07/04 06:05:30;;;;;;;9.45;2.30;;;17.80;98.60;;;;;;5094904;28;20061;-78
2023/07/04 06:07:56;;;;;;;8.15;2.03;;;17.80;98.60;;;;;;5093487;28;20032;-79
2023/07/04 06:10:22;;;;;;;15.15;3.00;;;17.90;98.60;;;;;;5093394;28;20024;-78
2023/07/04 06:12:50;;;;;;;12.02;2.90;;;17.90;98.60;;;;;;5094686;28;20039;-79
2023/07/04 06:15:16;;;;;;;14.25;3.25;;;18.00;98.70;;;;;;5093898;28;20032;-78
2023/07/04 06:17:42;;;;;;;17.58;3.35;;;18.00;98.70;;;;;;5093333;28;20024;-79
2023/07/04 06:20:10;;;;;;;15.75;4.35;;;17.90;98.80;;;;;;5093371;28;20031;-79
2023/07/04 06:22:36;;;;;;;17.38;3.33;;;17.90;98.80;;;;;;5094363;28;20089;-79
2023/07/04 06:25:02;;;;;;;16.42;3.65;;;17.90;98.80;;;;;;5076161;28;20044;-78
2023/07/04 06:27:28;;;;;;;17.08;4.22;;;17.90;98.90;;;;;;5094427;28;20064;-78
2023/07/04 06:29:55;;;;;;;16.23;4.20;;;17.80;99.00;;;;;;5093055;28;20036;-79
2023/07/04 06:32:21;;;;;;;20.30;4.53;;;17.70;99.10;;;;;;5093514;28;20024;-79
2023/07/04 06:34:47;;;;;;;19.17;4.13;;;17.70;99.40;;;;;;5093336;28;20380;-78
2023/07/04 06:37:12;;;;;;;18.55;3.75;;;17.60;99.50;;;;;;5093076;28;20028;-78
2023/07/04 06:39:38;;;;;;;20.70;4.03;;;17.60;99.50;;;;;;5093431;28;20032;-79
2023/07/04 06:42:04;;;;;;;18.60;4.90;;;17.60;99.70;;;;;;5092926;28;20032;-79
2023/07/04 06:44:29;;;;;;;19.42;4.53;;;17.60;99.80;;;;;;5075648;28;20063;-79
2023/07/04 06:46:55;;;;;;;21.52;4.70;;;17.50;99.90;;;;;;5076739;28;20028;-79
2023/07/04 06:49:21;;;;;;;18.27;4.57;;;17.50;99.90;;;;;;5093554;28;20023;-79
2023/07/04 06:51:46;;;;;;;19.08;4.30;;;17.50;99.90;;;;;;5092737;28;20024;-79
2023/07/04 06:54:12;;;;;;;22.25;4.20;;;17.50;99.90;;;;;;5076085;28;20082;-79
2023/07/04 06:56:38;;;;;;;15.05;4.07;;;17.50;99.90;;;;;;5094087;28;20043;-79
2023/07/04 06:59:03;;;;;;;19.58;3.90;;;17.50;99.90;;;;;;5092259;28;20024;-79
2023/07/04 07:01:32;;;;;;;24.52;5.00;;;17.50;99.90;;;;;;5094027;28;20024;-79
2023/07/04 07:03:59;;;;;;;19.17;4.50;;;17.60;99.90;;;;;;5093988;28;20193;-79
2023/07/04 07:06:26;;;;;;;19.15;4.50;;;17.60;99.90;;;;;;5093989;28;20475;-80
2023/07/04 07:08:52;;;;;;;16.63;3.83;;;17.60;99.90;;;;;;5092318;28;20044;-79
2023/07/04 07:11:19;;;;;;;15.32;3.85;;;17.70;99.90;;;;;;5092634;28;20034;-79
2023/07/04 07:13:48;;;;;;;19.15;4.30;;;17.80;99.90;;;;;;5093431;28;20115;-79
2023/07/04 07:16:20;;;;;;;15.82;3.40;;;17.90;99.90;;;;;;5092265;28;20024;-79
2023/07/04 07:18:46;;;;;;;20.58;4.28;;;17.90;99.90;;;;;;5091867;28;20115;-78
2023/07/04 07:21:14;;;;;;;18.60;3.38;;;18.00;99.90;;;;;;5093553;28;20028;-79
2023/07/04 07:23:41;;;;;;;14.23;3.05;;;18.10;99.80;;;;;;5092089;28;20036;-79
2023/07/04 07:26:09;;;;;;;20.35;3.78;;;18.10;99.70;;;;;;5092320;28;20202;-79
2023/07/04 07:28:39;;;;;;;19.95;3.78;;;18.10;99.60;;;;;;5093512;28;20028;-78
2023/07/04 07:31:05;;;;;;;15.55;3.60;;;18.10;99.30;;;;;;5092110;28;20028;-79
2023/07/04 07:33:33;;;;;;;15.57;3.72;;;18.00;98.80;;;;;;5091809;28;20058;-79
2023/07/04 07:36:06;;;;;;;12.52;3.17;;;18.00;98.80;;;;;;5093346;28;20074;-79
2023/07/04 07:38:32;;;;;;;14.32;4.10;;;17.90;98.60;;;;;;5092116;28;20464;-79
2023/07/04 07:40:57;;;;;;;17.77;3.47;;;17.90;98.30;;;;;;5075461;28;20046;-78
2023/07/04 07:43:23;;;;;;;20.10;4.90;;;17.80;98.40;;;;;;5091497;28;20134;-79
2023/07/04 07:45:49;;;;;;;12.40;2.88;;;17.80;98.60;;;;;;5058394;28;20074;-79
2023/07/04 07:48:16;;;;;;;14.90;3.30;;;17.70;98.60;;;;;;5075239;28;20025;-79
2023/07/04 07:50:43;;;;;;;17.25;3.67;;;17.80;98.70;;;;;;5093107;28;20020;-79
2023/07/04 07:53:09;;;;;;;21.02;3.53;;;17.80;98.60;;;;;;5075651;28;20100;-79
2023/07/04 07:55:34;;;;;;;12.80;3.28;;;17.80;98.10;;;;;;5093183;28;20057;-79
2023/07/04 07:58:00;;;;;;;17.00;2.92;;;17.90;98.20;;;;;;5092239;28;20110;-79
2023/07/04 08:00:29;;;;;;;12.68;2.75;;;17.90;97.60;;;;;;5092231;28;20026;-78
2023/07/04 08:02:54;;;;;;;18.17;2.50;;;17.90;97.20;;;;;;5093099;28;20028;-79
2023/07/04 08:05:20;;;;;;;12.80;2.53;;;17.90;97.50;;;;;;5093071;28;20093;-79
2023/07/04 08:07:46;;;;;;;17.25;2.80;;;17.90;97.10;;;;;;5093404;28;20104;-79
2023/07/04 08:10:12;;;;;;;12.65;2.35;;;17.80;96.60;;;;;;5079076;28;20466;-79
2023/07/04 08:12:37;;;;;;;10.07;2.05;;;17.80;96.70;;;;;;5097083;28;20028;-79
2023/07/04 08:15:03;;;;;;;18.05;2.65;;;17.70;97.00;;;;;;5096864;28;20037;-78
2023/07/04 08:17:29;;;;;;;11.13;2.30;;;17.70;97.00;;;;;;5095411;28;20032;-79
2023/07/04 08:19:55;;;;;;;13.40;2.22;;;17.70;96.50;;;;;;5095596;28;20054;-80
2023/07/04 08:22:21;;;;;;;9.55;2.05;;;17.70;95.80;;;;;;5095360;28;20024;-79
2023/07/04 08:24:46;;;;;;;13.93;2.63;;;17.80;96.00;;;;;;5096544;28;20039;-79
2023/07/04 08:27:12;;;;;;;13.10;2.22;;;17.80;95.90;;;;;;5096081;28;20039;-81
2023/07/04 08:29:38;;;;;;;12.90;2.13;;;17.80;95.80;;;;;;5095261;28;20025;-81
2023/07/04 08:32:05;;;;;;;15.50;2.55;;;17.90;95.40;;;;;;5078531;28;20043;-81
2023/07/04 08:34:31;;;;;;;12.88;2.28;;;17.80;95.40;;;;;;5095347;28;20024;-81
2023/07/04 08:36:57;;;;;;;15.77;3.08;;;17.90;95.20;;;;;;5096563;28;20081;-80
2023/07/04 08:39:23;;;;;;;11.30;2.40;;;17.90;95.50;;;;;;5096235;28;20502;-80
2023/07/04 08:42:00;;;;;;;10.93;1.52;;;17.90;94.90;;;;;;5096208;28;20028;-81
2023/07/04 08:44:47;;;;;;;9.55;1.50;;;17.80;95.00;;;;;;5094620;28;20131;-81
2023/07/04 08:47:16;;;;;;;11.05;2.03;;;17.90;95.10;;;;;;5096151;28;20040;-79
2023/07/04 08:49:48;;;;;;;13.40;1.92;;;18.00;95.20;;;;;;5095980;28;20107;-81
2023/07/04 08:52:31;;;;;;;8.33;1.50;;;18.00;94.60;;;;;;5096320;28;20030;-81
2023/07/04 08:54:57;;;;;;;11.90;1.80;;;18.10;94.40;;;;;;5095418;28;20024;-80
2023/07/04 08:57:39;;;;;;;12.23;1.88;;;18.20;94.50;;;;;;5078339;28;20525;-81
2023/07/04 09:00:28;;;;;;;12.17;2.33;;;18.20;94.00;;;;;;5095875;28;20103;-80
2023/07/04 09:03:02;;;;;;;12.15;2.13;;;18.30;93.90;;;;;;5096156;28;20130;-81
2023/07/04 09:05:43;;;;;;;15.32;2.25;;;18.30;94.00;;;;;;5095621;28;20361;-80
2023/07/04 09:08:23;;;;;;;13.38;2.45;;;18.40;94.00;;;;;;5096044;28;20476;-81
2023/07/04 09:10:53;;;;;;;9.18;1.65;;;18.30;93.60;;;;;;5095943;28;20054;-81
2023/07/04 09:13:44;;;;;;;9.10;1.67;;;18.40;93.70;;;;;;5094699;28;20024;-81
2023/07/04 09:16:16;;;;;;;12.15;2.22;;;18.50;93.90;;;;;;5095690;28;20443;-81
2023/07/04 09:18:54;;;;;;;11.55;1.42;;;18.70;93.50;;;;;;5095953;28;20136;-81
2023/07/04 09:21:24;;;;;;;9.57;2.25;;;18.70;93.00;;;;;;5094908;28;20024;-81
2023/07/04 09:23:52;;;;;;;9.40;1.60;;;18.80;92.40;;;;;;5094203;28;20100;-80
2023/07/04 09:26:21;;;;;;;8.40;1.80;;;18.90;92.60;;;;;;5095844;28;20077;-80
2023/07/04 09:28:51;;;;;;;13.02;1.77;;;19.00;92.20;;;;;;5095551;28;20073;-81
2023/07/04 09:31:25;;;;;;;9.27;1.58;;;19.10;92.10;;;;;;5095495;28;20113;-81
2023/07/04 09:33:53;;;;;;;8.77;1.50;;;19.30;92.30;;;;;;5095213;28;20365;-81
2023/07/04 09:36:21;;;;;;;10.10;1.58;;;19.40;92.10;;;;;;5095099;28;20375;-81
2023/07/04 09:38:51;;;;;;;9.57;1.70;;;19.40;91.80;;;;;;5094948;28;20441;-79
2023/07/04 09:41:17;;;;;;;9.40;1.67;;;19.50;90.60;;;;;;5093932;28;20139;-79
2023/07/04 09:43:43;;;;;;;13.82;1.80;;;19.50;90.20;;;;;;5093850;28;20105;-79
2023/07/04 09:46:30;;;;;;;7.82;1.73;;;19.60;89.30;;;;;;5093949;28;20028;-80
2023/07/04 09:49:18;;;;;;;9.32;1.67;;;19.70;88.40;;;;;;5094218;28;20030;-81
2023/07/04 09:51:55;;;;;;;7.35;1.45;;;19.70;87.20;;;;;;5094044;28;20393;-81
2023/07/04 09:54:21;;;;;;;10.23;1.75;;;19.80;87.00;;;;;;5095132;28;20036;-80
2023/07/04 09:56:47;;;;;;;8.57;1.50;;;19.90;85.90;;;;;;5094255;28;20043;-81
2023/07/04 09:59:29;;;;;;;7.63;1.75;;;20.00;86.10;;;;;;5095420;28;20029;-79
2023/07/04 10:02:19;;;;;;;8.85;1.20;;;20.00;85.50;;;;;;5077119;28;20036;-80
2023/07/04 10:04:49;;;;;;;6.97;1.60;;;20.00;86.60;;;;;;5094485;28;20028;-80
2023/07/04 10:07:21;;;;;;;9.75;1.25;;;20.10;86.40;;;;;;5094005;28;20119;-79
2023/07/04 10:09:54;;;;;;;9.75;1.35;;;20.10;86.20;;;;;;5094542;28;20032;-80
2023/07/04 10:12:21;;;;;;;12.57;1.50;;;20.30;85.70;;;;;;5095200;28;20055;-80
2023/07/04 10:14:53;;;;;;;8.73;1.58;;;20.40;85.00;;;;;;5093387;28;20036;-80
2023/07/04 10:17:32;;;;;;;6.47;1.20;;;20.50;85.40;;;;;;5077829;28;20020;-80
2023/07/04 10:20:09;;;;;;;11.45;1.50;;;20.50;82.90;;;;;;5094567;28;20468;-80
2023/07/04 10:22:38;;;;;;;8.38;1.35;;;20.60;81.70;;;;;;5094715;28;20063;-80
2023/07/04 10:25:11;;;;;;;5.57;1.25;;;20.60;82.30;;;;;;5093086;28;20024;-80
2023/07/04 10:27:40;;;;;;;5.63;0.95;;;20.60;79.50;;;;;;5077061;28;20028;-78
2023/07/04 10:30:09;;;;;;;6.47;1.30;;;20.70;79.80;;;;;;5093947;28;20024;-80
2023/07/04 10:32:48;;;;;;;10.00;1.45;;;20.70;79.60;;;;;;5094284;28;20020;-80
2023/07/04 10:35:20;;;;;;;8.07;1.55;;;20.70;81.10;;;;;;5094128;28;20039;-80
2023/07/04 10:37:51;;;;;;;7.20;1.65;;;20.70;80.50;;;;;;5094137;28;20103;-80
2023/07/04 10:40:19;;;;;;;6.88;1.40;;;20.60;80.50;;;;;;5094258;28;20028;-80
2023/07/04 10:43:01;;;;;;;8.00;1.45;;;20.60;80.10;;;;;;5094380;28;20043;-77
2023/07/04 10:45:29;;;;;;;6.63;1.50;;;20.40;80.60;;;;;;5076214;28;20055;-78
2023/07/04 10:48:00;;;;;;;6.93;1.20;;;20.50;81.90;;;;;;5092666;28;20115;-78
2023/07/04 10:50:32;;;;;;;7.95;1.05;;;20.50;81.70;;;;;;5094122;28;20023;-77
2023/07/04 10:52:58;;;;;;;5.80;1.05;;;20.50;81.00;;;;;;5093956;28;20030;-77
2023/07/04 10:55:34;;;;;;;7.03;1.55;;;20.60;79.60;;;;;;5093802;28;20060;-77
2023/07/04 10:58:08;;;;;;;5.53;0.95;;;20.70;79.10;;;;;;5094113;28;20110;-78
2023/07/04 11:00:56;;;;;;;10.07;1.30;;;20.70;78.50;;;;;;5093896;28;20032;-78
2023/07/04 11:03:28;;;;;;;6.97;1.02;;;20.80;77.80;;;;;;5092839;28;20030;-79
2023/07/04 11:05:55;;;;;;;6.22;1.08;;;20.90;76.70;;;;;;5093900;28;20042;-79
2023/07/04 11:08:25;;;;;;;7.22;1.27;;;21.00;76.70;;;;;;5093608;28;20024;-77
2023/07/04 11:10:58;;;;;;;7.65;1.10;;;21.10;76.80;;;;;;5093710;28;20028;-79
2023/07/04 11:13:24;;;;;;;4.97;1.15;;;21.10;78.00;;;;;;5093857;28;20028;-79
2023/07/04 11:15:56;;;;;;;9.23;1.70;;;21.20;78.10;;;;;;5093718;28;20115;-79
2023/07/04 11:18:30;;;;;;;8.37;1.37;;;21.20;77.10;;;;;;5093599;28;20028;-77
2023/07/04 11:21:16;;;;;;;10.23;1.27;;;21.10;77.50;;;;;;5093762;28;20254;-77
2023/07/04 11:23:48;;;;;;;8.55;1.48;;;21.10;77.70;;;;;;5093454;28;20039;-77
2023/07/04 11:26:14;;;;;;;6.68;1.30;;;21.20;77.50;;;;;;5093812;28;20066;-78
2023/07/04 11:28:42;;;;;;;10.45;1.08;;;21.10;77.00;;;;;;5093044;28;20506;-77
2023/07/04 11:31:19;;;;;;;6.82;1.20;;;21.10;75.90;;;;;;5093612;28;20024;-77
2023/07/04 11:33:57;;;;;;;4.75;0.82;;;21.20;74.80;;;;;;5092435;28;20035;-79
2023/07/04 11:36:30;;;;;;;6.43;1.10;;;21.30;74.00;;;;;;5093449;28;20099;-79
2023/07/04 11:39:21;;;;;;;6.45;1.10;;;21.40;75.50;;;;;;5092693;28;20349;-79
2023/07/04 11:41:48;;;;;;;6.05;1.10;;;21.70;74.20;;;;;;5093171;28;20035;-81
2023/07/04 11:44:31;;;;;;;6.85;1.38;;;21.70;72.60;;;;;;5093065;28;20101;-79
2023/07/04 11:47:09;;;;;;;6.88;1.08;;;21.60;72.60;;;;;;5096795;28;20074;-79
2023/07/04 11:49:36;;;;;;;7.25;1.13;;;21.60;73.90;;;;;;5097249;28;20152;-77
2023/07/04 11:52:16;;;;;;;4.97;0.90;;;21.50;73.50;;;;;;5096022;28;20032;-78
2023/07/04 11:54:44;;;;;;;5.60;0.88;;;21.50;74.40;;;;;;5097569;28;20039;-79
2023/07/04 11:57:10;;;;;;;3.53;0.98;;;21.50;75.00;;;;;;5097045;28;20043;-79
2023/07/04 11:59:43;;;;;;;5.38;1.05;;;21.40;74.80;;;;;;5097047;28;20024;-78
2023/07/04 12:02:14;;;;;;;6.38;1.10;;;21.50;75.80;;;;;;5097005;28;20081;-78
2023/07/04 12:04:39;;;;;;;5.47;1.42;;;21.50;75.30;;;;;;5095300;28;20028;-78
2023/07/04 12:07:26;;;;;;;6.43;1.10;;;21.60;75.20;;;;;;5096722;28;20024;-78
2023/07/04 12:10:01;;;;;;;5.18;0.88;;;21.60;73.30;;;;;;5097130;28;20028;-79
2023/07/04 12:12:29;;;;;;;8.13;1.13;;;21.50;72.70;;;;;;5095469;28;20020;-78
2023/07/04 12:15:08;;;;;;;7.13;0.93;;;21.40;73.40;;;;;;5096660;28;20028;-78
2023/07/04 12:17:35;;;;;;;4.95;1.05;;;21.30;74.30;;;;;;5097061;28;20021;-78
2023/07/04 12:20:04;;;;;;;6.88;1.05;;;21.40;74.60;;;;;;5096747;28;20035;-80
2023/07/04 12:22:30;;;;;;;7.38;1.40;;;21.60;74.20;;;;;;5096653;28;20020;-79
2023/07/04 12:25:07;;;;;;;5.43;1.02;;;21.60;74.10;;;;;;5096295;28;20039;-79
2023/07/04 12:27:33;;;;;;;6.35;1.10;;;21.70;73.60;;;;;;5096068;28;20544;-80
2023/07/04 12:29:59;;;;;;;8.07;1.00;;;21.60;71.80;;;;;;5096816;28;20024;-78
2023/07/04 12:32:24;;;;;;;4.60;1.10;;;21.50;73.00;;;;;;5096271;28;20020;-78
2023/07/04 12:34:53;;;;;;;5.03;1.00;;;21.30;73.10;;;;;;5078333;28;20032;-79
2023/07/04 12:37:19;;;;;;;3.60;0.80;;;21.20;72.80;;;;;;5095077;28;20380;-79
2023/07/04 12:39:49;;;;;;;6.90;0.90;;;21.00;73.10;;;;;;5096028;28;20055;-80
2023/07/04 12:42:28;;;;;;;7.65;1.23;;;20.90;72.80;;;;;;5096366;28;20025;-79
2023/07/04 12:44:54;;;;;;;6.82;1.05;;;20.90;73.80;;;;;;5096798;28;20418;-80
2023/07/04 12:47:23;;;;;;;6.57;1.58;;;20.90;74.60;;;;;;5094946;28;20031;-81
2023/07/04 12:49:52;;;;;;;5.45;1.13;;;21.20;76.00;;;;;;5094858;28;20028;-80
2023/07/04 12:52:23;;;;;;;9.88;1.08;;;21.30;75.60;;;;;;5094872;28;20384;-79